sensor_id;sensor_type;location;lat;lon;timestamp;P1;durP1;ratioP1;P2;durP2;ratioP2
48522;SDS011;34315;50.150;11.070;2022-10-15T00:02:08;1.52;;;1.20;;
48522;SDS011;34315;50.150;11.070;2022-10-15T00:07:09;2.60;;;1.60;;
48522;SDS011;34315;50.150;11.070;2022-10-15T00:12:09;3.00;;;1.50;;
48522;SDS011;34315;50.150;11.070;2022-10-15T00:17:09;3.10;;;1.73;;
48522;SDS011;34315;50.150;11.070;2022-10-15T00:22:10;4.45;;;1.50;;
48522;SDS011;34315;50.150;11.070;2022-10-15T00:27:11;2.97;;;1.55;;
48522;SDS011;34315;50.150;11.070;2022-10-15T00:32:12;4.57;;;2.45;;
48522;SDS011;34315;50.150;11.070;2022-10-15T00:37:13;9.45;;;3.30;;
48522;SDS011;34315;50.150;11.070;2022-10-15T00:42:14;4.70;;;1.70;;
48522;SDS011;34315;50.150;11.070;2022-10-15T00:47:19;4.53;;;2.38;;
48522;SDS011;34315;50.150;11.070;2022-10-15T00:52:29;3.47;;;2.05;;
48522;SDS011;34315;50.150;11.070;2022-10-15T00:57:34;4.47;;;2.00;;
48522;SDS011;34315;50.150;11.070;2022-10-15T01:02:35;4.63;;;1.98;;
48522;SDS011;34315;50.150;11.070;2022-10-15T01:07:35;6.35;;;2.60;;
48522;SDS011;34315;50.150;11.070;2022-10-15T01:12:43;5.22;;;2.22;;
48522;SDS011;34315;50.150;11.070;2022-10-15T01:18:01;6.07;;;2.65;;
48522;SDS011;34315;50.150;11.070;2022-10-15T01:28:57;4.65;;;1.92;;
48522;SDS011;34315;50.150;11.070;2022-10-15T01:34:23;7.13;;;2.20;;
48522;SDS011;34315;50.150;11.070;2022-10-15T01:39:49;7.85;;;2.95;;
48522;SDS011;34315;50.150;11.070;2022-10-15T01:44:53;3.95;;;2.10;;
48522;SDS011;34315;50.150;11.070;2022-10-15T01:50:05;4.53;;;2.65;;
48522;SDS011;34315;50.150;11.070;2022-10-15T01:55:09;4.72;;;2.55;;
48522;SDS011;34315;50.150;11.070;2022-10-15T02:00:13;7.43;;;3.75;;
48522;SDS011;34315;50.150;11.070;2022-10-15T02:05:15;6.47;;;2.72;;
48522;SDS011;34315;50.150;11.070;2022-10-15T02:21:17;3.80;;;2.47;;
48522;SDS011;34315;50.150;11.070;2022-10-15T02:26:21;6.38;;;3.30;;
48522;SDS011;34315;50.150;11.070;2022-10-15T02:31:25;6.60;;;3.80;;
48522;SDS011;34315;50.150;11.070;2022-10-15T02:36:32;5.82;;;3.28;;
48522;SDS011;34315;50.150;11.070;2022-10-15T02:41:38;4.47;;;3.05;;
48522;SDS011;34315;50.150;11.070;2022-10-15T02:46:39;14.88;;;5.57;;
48522;SDS011;34315;50.150;11.070;2022-10-15T02:51:40;5.05;;;3.30;;
48522;SDS011;34315;50.150;11.070;2022-10-15T02:56:40;6.60;;;3.45;;
48522;SDS011;34315;50.150;11.070;2022-10-15T03:01:41;5.53;;;3.42;;
48522;SDS011;34315;50.150;11.070;2022-10-15T03:06:43;6.47;;;3.70;;
48522;SDS011;34315;50.150;11.070;2022-10-15T03:11:44;7.65;;;4.35;;
48522;SDS011;34315;50.150;11.070;2022-10-15T03:16:46;6.43;;;4.35;;
48522;SDS011;34315;50.150;11.070;2022-10-15T03:21:47;7.28;;;4.80;;
48522;SDS011;34315;50.150;11.070;2022-10-15T03:26:50;7.35;;;4.57;;
48522;SDS011;34315;50.150;11.070;2022-10-15T03:31:50;6.10;;;4.30;;
48522;SDS011;34315;50.150;11.070;2022-10-15T03:36:54;6.35;;;3.72;;
48522;SDS011;34315;50.150;11.070;2022-10-15T03:41:54;9.52;;;3.72;;
48522;SDS011;34315;50.150;11.070;2022-10-15T03:47:03;7.10;;;3.75;;
48522;SDS011;34315;50.150;11.070;2022-10-15T03:52:14;6.35;;;3.95;;
48522;SDS011;34315;50.150;11.070;2022-10-15T03:57:16;6.75;;;4.47;;
48522;SDS011;34315;50.150;11.070;2022-10-15T04:02:20;7.97;;;4.25;;
48522;SDS011;34315;50.150;11.070;2022-10-15T04:07:21;5.20;;;3.83;;
48522;SDS011;34315;50.150;11.070;2022-10-15T04:12:22;7.55;;;4.03;;
48522;SDS011;34315;50.150;11.070;2022-10-15T04:17:23;5.60;;;3.72;;
48522;SDS011;34315;50.150;11.070;2022-10-15T04:22:24;9.30;;;4.22;;
48522;SDS011;34315;50.150;11.070;2022-10-15T04:27:30;6.55;;;4.78;;
48522;SDS011;34315;50.150;11.070;2022-10-15T04:32:40;9.48;;;3.58;;
48522;SDS011;34315;50.150;11.070;2022-10-15T04:37:41;8.02;;;4.20;;
48522;SDS011;34315;50.150;11.070;2022-10-15T04:42:43;9.07;;;4.82;;
48522;SDS011;34315;50.150;11.070;2022-10-15T04:47:46;6.05;;;4.38;;
48522;SDS011;34315;50.150;11.070;2022-10-15T04:52:49;6.15;;;3.75;;
48522;SDS011;34315;50.150;11.070;2022-10-15T04:57:52;6.85;;;4.50;;
48522;SDS011;34315;50.150;11.070;2022-10-15T05:03:01;6.40;;;3.70;;
48522;SDS011;34315;50.150;11.070;2022-10-15T05:08:12;10.85;;;5.65;;
48522;SDS011;34315;50.150;11.070;2022-10-15T05:13:31;6.70;;;4.53;;
48522;SDS011;34315;50.150;11.070;2022-10-15T05:18:36;7.85;;;4.28;;
48522;SDS011;34315;50.150;11.070;2022-10-15T05:23:39;9.90;;;4.63;;
48522;SDS011;34315;50.150;11.070;2022-10-15T05:29:04;5.38;;;3.85;;
48522;SDS011;34315;50.150;11.070;2022-10-15T05:34:07;5.18;;;3.55;;
48522;SDS011;34315;50.150;11.070;2022-10-15T05:39:16;4.05;;;2.70;;
48522;SDS011;34315;50.150;11.070;2022-10-15T05:44:18;5.78;;;2.90;;
48522;SDS011;34315;50.150;11.070;2022-10-15T05:49:19;4.05;;;2.63;;
48522;SDS011;34315;50.150;11.070;2022-10-15T05:54:27;4.75;;;2.92;;
48522;SDS011;34315;50.150;11.070;2022-10-15T05:59:28;4.72;;;2.90;;
48522;SDS011;34315;50.150;11.070;2022-10-15T06:04:31;4.57;;;3.05;;
48522;SDS011;34315;50.150;11.070;2022-10-15T06:09:32;5.13;;;3.08;;
48522;SDS011;34315;50.150;11.070;2022-10-15T06:14:33;6.68;;;3.13;;
48522;SDS011;34315;50.150;11.070;2022-10-15T06:19:33;4.82;;;2.92;;
48522;SDS011;34315;50.150;11.070;2022-10-15T06:24:34;5.38;;;3.05;;
48522;SDS011;34315;50.150;11.070;2022-10-15T06:29:37;9.98;;;3.35;;
48522;SDS011;34315;50.150;11.070;2022-10-15T06:34:37;3.85;;;2.50;;
48522;SDS011;34315;50.150;11.070;2022-10-15T06:39:37;3.42;;;2.25;;
48522;SDS011;34315;50.150;11.070;2022-10-15T06:44:39;4.10;;;2.90;;
48522;SDS011;34315;50.150;11.070;2022-10-15T06:49:40;6.22;;;2.92;;
48522;SDS011;34315;50.150;11.070;2022-10-15T06:54:41;6.45;;;3.10;;
48522;SDS011;34315;50.150;11.070;2022-10-15T06:59:45;5.75;;;2.80;;
48522;SDS011;34315;50.150;11.070;2022-10-15T07:04:46;3.75;;;2.40;;
48522;SDS011;34315;50.150;11.070;2022-10-15T07:09:52;2.55;;;1.90;;
48522;SDS011;34315;50.150;11.070;2022-10-15T07:14:54;2.13;;;1.40;;
48522;SDS011;34315;50.150;11.070;2022-10-15T07:19:56;6.75;;;2.85;;
48522;SDS011;34315;50.150;11.070;2022-10-15T07:24:56;4.55;;;3.28;;
48522;SDS011;34315;50.150;11.070;2022-10-15T07:29:57;5.88;;;3.40;;
48522;SDS011;34315;50.150;11.070;2022-10-15T07:34:57;8.90;;;4.35;;
48522;SDS011;34315;50.150;11.070;2022-10-15T07:39:58;6.40;;;3.17;;
48522;SDS011;34315;50.150;11.070;2022-10-15T07:44:59;2.97;;;1.45;;
48522;SDS011;34315;50.150;11.070;2022-10-15T07:49:59;2.15;;;1.20;;
48522;SDS011;34315;50.150;11.070;2022-10-15T07:55:01;3.20;;;1.60;;
48522;SDS011;34315;50.150;11.070;2022-10-15T08:00:03;2.65;;;1.60;;
48522;SDS011;34315;50.150;11.070;2022-10-15T08:05:13;2.67;;;1.35;;
48522;SDS011;34315;50.150;11.070;2022-10-15T08:10:13;2.45;;;1.70;;
48522;SDS011;34315;50.150;11.070;2022-10-15T08:15:15;2.85;;;1.50;;
48522;SDS011;34315;50.150;11.070;2022-10-15T08:20:15;3.53;;;1.73;;
48522;SDS011;34315;50.150;11.070;2022-10-15T08:25:16;6.80;;;1.98;;
48522;SDS011;34315;50.150;11.070;2022-10-15T08:30:16;4.85;;;1.73;;
48522;SDS011;34315;50.150;11.070;2022-10-15T08:35:17;2.92;;;2.08;;
48522;SDS011;34315;50.150;11.070;2022-10-15T08:40:17;3.00;;;1.90;;
48522;SDS011;34315;50.150;11.070;2022-10-15T08:50:41;3.13;;;1.70;;
48522;SDS011;34315;50.150;11.070;2022-10-15T08:55:43;1.90;;;1.50;;
48522;SDS011;34315;50.150;11.070;2022-10-15T09:05:58;5.13;;;1.70;;
48522;SDS011;34315;50.150;11.070;2022-10-15T09:16:47;3.33;;;1.60;;
48522;SDS011;34315;50.150;11.070;2022-10-15T09:21:49;2.60;;;1.60;;
48522;SDS011;34315;50.150;11.070;2022-10-15T09:32:28;3.00;;;1.63;;
48522;SDS011;34315;50.150;11.070;2022-10-15T09:43:02;2.97;;;1.93;;
48522;SDS011;34315;50.150;11.070;2022-10-15T09:48:11;1.90;;;1.52;;
48522;SDS011;34315;50.150;11.070;2022-10-15T09:53:22;3.38;;;2.17;;
48522;SDS011;34315;50.150;11.070;2022-10-15T09:58:49;3.08;;;1.80;;
48522;SDS011;34315;50.150;11.070;2022-10-15T10:03:53;3.53;;;2.40;;
48522;SDS011;34315;50.150;11.070;2022-10-15T10:09:11;3.17;;;2.30;;
48522;SDS011;34315;50.150;11.070;2022-10-15T10:14:22;5.25;;;2.30;;
48522;SDS011;34315;50.150;11.070;2022-10-15T10:19:26;3.00;;;2.22;;
48522;SDS011;34315;50.150;11.070;2022-10-15T10:29:35;2.58;;;1.80;;
48522;SDS011;34315;50.150;11.070;2022-10-15T10:34:38;3.40;;;2.00;;
48522;SDS011;34315;50.150;11.070;2022-10-15T10:39:42;4.45;;;2.30;;
48522;SDS011;34315;50.150;11.070;2022-10-15T10:44:49;1.67;;;1.30;;
48522;SDS011;34315;50.150;11.070;2022-10-15T10:49:52;2.25;;;1.63;;
48522;SDS011;34315;50.150;11.070;2022-10-15T10:54:58;3.63;;;1.98;;
48522;SDS011;34315;50.150;11.070;2022-10-15T11:00:19;1.70;;;1.40;;
48522;SDS011;34315;50.150;11.070;2022-10-15T11:05:26;2.08;;;1.58;;
48522;SDS011;34315;50.150;11.070;2022-10-15T11:10:29;2.25;;;1.10;;
48522;SDS011;34315;50.150;11.070;2022-10-15T11:15:48;1.25;;;1.00;;
48522;SDS011;34315;50.150;11.070;2022-10-15T11:21:02;2.85;;;1.13;;
48522;SDS011;34315;50.150;11.070;2022-10-15T11:26:30;2.78;;;1.00;;
48522;SDS011;34315;50.150;11.070;2022-10-15T11:53:25;2.53;;;1.33;;
48522;SDS011;34315;50.150;11.070;2022-10-15T11:57:58;2.20;;;1.20;;
48522;SDS011;34315;50.150;11.070;2022-10-15T12:03:06;2.88;;;1.10;;
48522;SDS011;34315;50.150;11.070;2022-10-15T12:08:15;3.38;;;1.08;;
48522;SDS011;34315;50.150;11.070;2022-10-15T12:13:34;1.38;;;1.00;;
48522;SDS011;34315;50.150;11.070;2022-10-15T12:18:49;2.30;;;0.95;;
48522;SDS011;34315;50.150;11.070;2022-10-15T12:23:54;1.25;;;1.10;;
48522;SDS011;34315;50.150;11.070;2022-10-15T12:28:55;3.05;;;0.80;;
48522;SDS011;34315;50.150;11.070;2022-10-15T12:33:56;1.95;;;1.00;;
48522;SDS011;34315;50.150;11.070;2022-10-15T12:39:01;2.45;;;1.10;;
48522;SDS011;34315;50.150;11.070;2022-10-15T12:44:04;1.35;;;1.05;;
48522;SDS011;34315;50.150;11.070;2022-10-15T13:04:42;1.52;;;1.30;;
48522;SDS011;34315;50.150;11.070;2022-10-15T13:09:42;1.65;;;1.20;;
48522;SDS011;34315;50.150;11.070;2022-10-15T13:14:47;2.88;;;1.52;;
48522;SDS011;34315;50.150;11.070;2022-10-15T13:19:55;2.47;;;1.60;;
48522;SDS011;34315;50.150;11.070;2022-10-15T13:24:59;3.05;;;1.67;;
48522;SDS011;34315;50.150;11.070;2022-10-15T13:30:02;4.38;;;2.10;;
48522;SDS011;34315;50.150;11.070;2022-10-15T13:35:17;3.38;;;2.00;;
48522;SDS011;34315;50.150;11.070;2022-10-15T13:40:22;4.22;;;2.17;;
48522;SDS011;34315;50.150;11.070;2022-10-15T13:45:24;5.80;;;1.90;;
48522;SDS011;34315;50.150;11.070;2022-10-15T13:50:28;4.10;;;1.60;;
48522;SDS011;34315;50.150;11.070;2022-10-15T13:55:33;4.20;;;2.15;;
48522;SDS011;34315;50.150;11.070;2022-10-15T14:00:35;3.35;;;1.77;;
48522;SDS011;34315;50.150;11.070;2022-10-15T14:05:36;2.88;;;1.40;;
48522;SDS011;34315;50.150;11.070;2022-10-15T14:10:36;2.58;;;1.40;;
48522;SDS011;34315;50.150;11.070;2022-10-15T14:15:41;2.88;;;1.42;;
48522;SDS011;34315;50.150;11.070;2022-10-15T14:20:49;1.92;;;1.05;;
48522;SDS011;34315;50.150;11.070;2022-10-15T14:25:59;4.03;;;1.70;;
48522;SDS011;34315;50.150;11.070;2022-10-15T14:31:01;3.70;;;1.50;;
48522;SDS011;34315;50.150;11.070;2022-10-15T14:41:26;3.22;;;1.45;;
48522;SDS011;34315;50.150;11.070;2022-10-15T14:46:35;2.42;;;1.33;;
48522;SDS011;34315;50.150;11.070;2022-10-15T14:51:37;1.80;;;1.20;;
48522;SDS011;34315;50.150;11.070;2022-10-15T14:56:38;2.88;;;1.20;;
48522;SDS011;34315;50.150;11.070;2022-10-15T15:01:49;1.00;;;0.90;;
48522;SDS011;34315;50.150;11.070;2022-10-15T15:06:51;2.53;;;1.10;;
48522;SDS011;34315;50.150;11.070;2022-10-15T15:11:51;1.58;;;0.95;;
48522;SDS011;34315;50.150;11.070;2022-10-15T15:16:51;1.63;;;1.10;;
48522;SDS011;34315;50.150;11.070;2022-10-15T15:21:52;2.83;;;1.30;;
48522;SDS011;34315;50.150;11.070;2022-10-15T15:26:52;4.03;;;1.10;;
48522;SDS011;34315;50.150;11.070;2022-10-15T15:31:53;2.47;;;1.30;;
48522;SDS011;34315;50.150;11.070;2022-10-15T15:36:53;2.70;;;1.23;;
48522;SDS011;34315;50.150;11.070;2022-10-15T15:41:54;4.07;;;1.30;;
48522;SDS011;34315;50.150;11.070;2022-10-15T15:46:54;1.33;;;1.00;;
48522;SDS011;34315;50.150;11.070;2022-10-15T15:51:55;3.22;;;1.38;;
48522;SDS011;34315;50.150;11.070;2022-10-15T15:56:55;4.05;;;1.33;;
48522;SDS011;34315;50.150;11.070;2022-10-15T16:01:55;4.88;;;1.90;;
48522;SDS011;34315;50.150;11.070;2022-10-15T16:06:56;3.65;;;2.00;;
48522;SDS011;34315;50.150;11.070;2022-10-15T16:11:56;5.18;;;2.33;;
48522;SDS011;34315;50.150;11.070;2022-10-15T16:16:57;4.78;;;1.90;;
48522;SDS011;34315;50.150;11.070;2022-10-15T16:21:57;4.68;;;2.10;;
48522;SDS011;34315;50.150;11.070;2022-10-15T16:26:58;3.63;;;1.83;;
48522;SDS011;34315;50.150;11.070;2022-10-15T16:31:58;2.55;;;1.40;;
48522;SDS011;34315;50.150;11.070;2022-10-15T16:36:59;4.10;;;2.00;;
48522;SDS011;34315;50.150;11.070;2022-10-15T16:41:59;4.50;;;1.48;;
48522;SDS011;34315;50.150;11.070;2022-10-15T16:47:00;5.20;;;1.60;;
48522;SDS011;34315;50.150;11.070;2022-10-15T16:52:01;4.75;;;1.40;;
48522;SDS011;34315;50.150;11.070;2022-10-15T16:57:01;3.55;;;1.70;;
48522;SDS011;34315;50.150;11.070;2022-10-15T17:02:02;2.45;;;1.58;;
48522;SDS011;34315;50.150;11.070;2022-10-15T17:07:03;4.10;;;1.63;;
48522;SDS011;34315;50.150;11.070;2022-10-15T17:12:03;3.25;;;1.63;;
48522;SDS011;34315;50.150;11.070;2022-10-15T17:17:04;3.95;;;2.00;;
48522;SDS011;34315;50.150;11.070;2022-10-15T17:22:06;5.20;;;2.40;;
48522;SDS011;34315;50.150;11.070;2022-10-15T17:27:07;3.13;;;1.48;;
48522;SDS011;34315;50.150;11.070;2022-10-15T17:32:07;1.45;;;1.05;;
48522;SDS011;34315;50.150;11.070;2022-10-15T17:37:08;1.88;;;1.23;;
48522;SDS011;34315;50.150;11.070;2022-10-15T17:42:08;3.03;;;1.50;;
48522;SDS011;34315;50.150;11.070;2022-10-15T17:47:09;5.05;;;1.50;;
48522;SDS011;34315;50.150;11.070;2022-10-15T17:52:09;4.95;;;3.10;;
48522;SDS011;34315;50.150;11.070;2022-10-15T17:57:09;3.25;;;1.40;;
48522;SDS011;34315;50.150;11.070;2022-10-15T18:02:10;3.83;;;2.05;;
48522;SDS011;34315;50.150;11.070;2022-10-15T18:07:12;2.75;;;1.80;;
48522;SDS011;34315;50.150;11.070;2022-10-15T18:12:16;2.83;;;1.43;;
48522;SDS011;34315;50.150;11.070;2022-10-15T18:17:16;2.58;;;1.20;;
48522;SDS011;34315;50.150;11.070;2022-10-15T18:22:18;2.28;;;1.17;;
48522;SDS011;34315;50.150;11.070;2022-10-15T18:27:19;3.47;;;1.30;;
48522;SDS011;34315;50.150;11.070;2022-10-15T18:32:19;2.35;;;1.10;;
48522;SDS011;34315;50.150;11.070;2022-10-15T18:37:20;2.58;;;1.30;;
48522;SDS011;34315;50.150;11.070;2022-10-15T18:42:20;1.95;;;1.10;;
48522;SDS011;34315;50.150;11.070;2022-10-15T18:47:21;2.45;;;1.10;;
48522;SDS011;34315;50.150;11.070;2022-10-15T18:52:21;3.10;;;1.20;;
48522;SDS011;34315;50.150;11.070;2022-10-15T18:57:21;3.50;;;1.40;;
48522;SDS011;34315;50.150;11.070;2022-10-15T19:02:22;3.70;;;1.10;;
48522;SDS011;34315;50.150;11.070;2022-10-15T19:07:23;2.20;;;1.02;;
48522;SDS011;34315;50.150;11.070;2022-10-15T19:12:24;6.07;;;1.60;;
48522;SDS011;34315;50.150;11.070;2022-10-15T19:17:25;4.40;;;2.10;;
48522;SDS011;34315;50.150;11.070;2022-10-15T19:22:27;5.93;;;2.30;;
48522;SDS011;34315;50.150;11.070;2022-10-15T19:27:30;8.48;;;2.78;;
48522;SDS011;34315;50.150;11.070;2022-10-15T19:32:31;3.13;;;1.55;;
48522;SDS011;34315;50.150;11.070;2022-10-15T19:37:32;7.00;;;3.15;;
48522;SDS011;34315;50.150;11.070;2022-10-15T19:42:33;4.75;;;2.22;;
48522;SDS011;34315;50.150;11.070;2022-10-15T19:47:34;2.65;;;1.05;;
48522;SDS011;34315;50.150;11.070;2022-10-15T19:52:35;4.07;;;1.00;;
48522;SDS011;34315;50.150;11.070;2022-10-15T19:57:35;3.50;;;1.23;;
48522;SDS011;34315;50.150;11.070;2022-10-15T20:02:35;4.18;;;1.27;;
48522;SDS011;34315;50.150;11.070;2022-10-15T20:07:36;3.55;;;1.52;;
48522;SDS011;34315;50.150;11.070;2022-10-15T20:12:37;2.00;;;1.10;;
48522;SDS011;34315;50.150;11.070;2022-10-15T20:17:37;5.40;;;1.25;;
48522;SDS011;34315;50.150;11.070;2022-10-15T20:22:38;4.72;;;1.20;;
48522;SDS011;34315;50.150;11.070;2022-10-15T20:27:38;2.55;;;1.10;;
48522;SDS011;34315;50.150;11.070;2022-10-15T20:32:39;2.65;;;1.25;;
48522;SDS011;34315;50.150;11.070;2022-10-15T20:37:39;5.63;;;1.20;;
48522;SDS011;34315;50.150;11.070;2022-10-15T20:42:40;2.05;;;1.33;;
48522;SDS011;34315;50.150;11.070;2022-10-15T20:47:41;2.47;;;1.15;;
48522;SDS011;34315;50.150;11.070;2022-10-15T20:52:43;3.92;;;1.17;;
48522;SDS011;34315;50.150;11.070;2022-10-15T20:57:44;2.35;;;1.00;;
48522;SDS011;34315;50.150;11.070;2022-10-15T21:02:44;1.85;;;1.15;;
48522;SDS011;34315;50.150;11.070;2022-10-15T21:07:44;7.63;;;3.90;;
48522;SDS011;34315;50.150;11.070;2022-10-15T21:12:45;2.45;;;1.15;;
48522;SDS011;34315;50.150;11.070;2022-10-15T21:17:45;2.20;;;1.10;;
48522;SDS011;34315;50.150;11.070;2022-10-15T21:22:46;1.13;;;0.85;;
48522;SDS011;34315;50.150;11.070;2022-10-15T21:27:46;4.47;;;1.60;;
48522;SDS011;34315;50.150;11.070;2022-10-15T21:32:46;3.28;;;1.40;;
48522;SDS011;34315;50.150;11.070;2022-10-15T21:37:47;3.70;;;1.27;;
48522;SDS011;34315;50.150;11.070;2022-10-15T21:42:47;5.00;;;1.10;;
48522;SDS011;34315;50.150;11.070;2022-10-15T21:47:48;1.33;;;0.88;;
48522;SDS011;34315;50.150;11.070;2022-10-15T21:52:48;2.95;;;1.15;;
48522;SDS011;34315;50.150;11.070;2022-10-15T21:57:49;2.63;;;1.00;;
48522;SDS011;34315;50.150;11.070;2022-10-15T22:02:50;1.88;;;1.25;;
48522;SDS011;34315;50.150;11.070;2022-10-15T22:07:50;2.95;;;1.33;;
48522;SDS011;34315;50.150;11.070;2022-10-15T22:12:51;1.45;;;1.00;;
48522;SDS011;34315;50.150;11.070;2022-10-15T22:17:51;4.00;;;1.20;;
48522;SDS011;34315;50.150;11.070;2022-10-15T22:22:52;1.73;;;1.15;;
48522;SDS011;34315;50.150;11.070;2022-10-15T22:27:53;3.15;;;1.02;;
48522;SDS011;34315;50.150;11.070;2022-10-15T22:32:53;3.85;;;1.25;;
48522;SDS011;34315;50.150;11.070;2022-10-15T22:37:54;2.63;;;1.08;;
48522;SDS011;34315;50.150;11.070;2022-10-15T22:42:56;4.15;;;1.48;;
48522;SDS011;34315;50.150;11.070;2022-10-15T22:47:57;2.63;;;1.00;;
48522;SDS011;34315;50.150;11.070;2022-10-15T22:52:57;1.13;;;1.02;;
48522;SDS011;34315;50.150;11.070;2022-10-15T22:57:58;2.42;;;1.08;;
48522;SDS011;34315;50.150;11.070;2022-10-15T23:02:58;2.97;;;1.20;;
48522;SDS011;34315;50.150;11.070;2022-10-15T23:07:58;2.30;;;1.15;;
48522;SDS011;34315;50.150;11.070;2022-10-15T23:12:59;3.22;;;1.40;;
48522;SDS011;34315;50.150;11.070;2022-10-15T23:17:59;1.50;;;1.00;;
48522;SDS011;34315;50.150;11.070;2022-10-15T23:23:00;2.47;;;1.40;;
48522;SDS011;34315;50.150;11.070;2022-10-15T23:28:00;3.80;;;1.48;;
48522;SDS011;34315;50.150;11.070;2022-10-15T23:33:01;3.65;;;1.55;;
48522;SDS011;34315;50.150;11.070;2022-10-15T23:38:02;3.97;;;1.60;;
48522;SDS011;34315;50.150;11.070;2022-10-15T23:43:02;2.10;;;1.40;;
48522;SDS011;34315;50.150;11.070;2022-10-15T23:48:02;4.07;;;1.40;;
48522;SDS011;34315;50.150;11.070;2022-10-15T23:53:03;3.13;;;1.30;;
48522;SDS011;34315;50.150;11.070;2022-10-15T23:58:03;9.45;;;1.73;;
